sensor_id;sensor_type;location;lat;lon;timestamp;P1;durP1;ratioP1;P2;durP2;ratioP2
26780;SDS011;14366;49.184;8.054;2023-04-16T18:24:13;11.35;;;9.65;;
26780;SDS011;14366;49.184;8.054;2023-04-16T18:29:48;15.40;;;9.47;;
26780;SDS011;14366;49.184;8.054;2023-04-16T18:35:08;11.80;;;9.70;;
26780;SDS011;14366;49.184;8.054;2023-04-16T18:40:43;14.27;;;9.20;;
26780;SDS011;14366;49.184;8.054;2023-04-16T19:02:29;12.90;;;10.17;;
26780;SDS011;14366;49.184;8.054;2023-04-16T19:07:50;13.02;;;10.27;;
26780;SDS011;14366;49.184;8.054;2023-04-16T19:13:25;12.37;;;10.67;;
26780;SDS011;14366;49.184;8.054;2023-04-16T19:19:00;11.65;;;9.80;;
26780;SDS011;14366;49.184;8.054;2023-04-16T19:24:18;11.40;;;9.63;;
26780;SDS011;14366;49.184;8.054;2023-04-16T19:34:55;11.00;;;9.43;;
26780;SDS011;14366;49.184;8.054;2023-04-16T19:45:21;10.57;;;9.47;;
26780;SDS011;14366;49.184;8.054;2023-04-16T19:50:59;11.15;;;9.75;;
26780;SDS011;14366;49.184;8.054;2023-04-16T19:56:29;15.00;;;11.53;;
26780;SDS011;14366;49.184;8.054;2023-04-16T20:01:51;17.43;;;12.77;;
26780;SDS011;14366;49.184;8.054;2023-04-16T20:07:24;18.53;;;15.13;;
26780;SDS011;14366;49.184;8.054;2023-04-16T20:12:59;19.90;;;15.77;;
26780;SDS011;14366;49.184;8.054;2023-04-16T20:18:35;18.57;;;14.77;;
26780;SDS011;14366;49.184;8.054;2023-04-16T20:24:10;17.30;;;14.20;;
26780;SDS011;14366;49.184;8.054;2023-04-16T20:29:27;20.05;;;14.85;;
26780;SDS011;14366;49.184;8.054;2023-04-16T20:35:04;20.07;;;15.90;;
26780;SDS011;14366;49.184;8.054;2023-04-16T20:40:39;20.40;;;15.87;;
26780;SDS011;14366;49.184;8.054;2023-04-16T20:46:17;19.40;;;17.10;;
26780;SDS011;14366;49.184;8.054;2023-04-16T20:51:50;20.00;;;15.90;;
26780;SDS011;14366;49.184;8.054;2023-04-16T20:57:23;22.00;;;16.60;;
26780;SDS011;14366;49.184;8.054;2023-04-16T21:02:58;21.90;;;16.00;;
26780;SDS011;14366;49.184;8.054;2023-04-16T21:08:19;20.77;;;16.10;;
26780;SDS011;14366;49.184;8.054;2023-04-16T21:13:51;22.73;;;17.50;;
26780;SDS011;14366;49.184;8.054;2023-04-16T21:19:11;20.67;;;16.40;;
26780;SDS011;14366;49.184;8.054;2023-04-16T21:24:29;21.00;;;16.63;;
26780;SDS011;14366;49.184;8.054;2023-04-16T21:29:59;21.63;;;16.97;;
26780;SDS011;14366;49.184;8.054;2023-04-16T21:40:22;23.65;;;17.85;;
26780;SDS011;14366;49.184;8.054;2023-04-16T21:50:56;26.03;;;20.37;;
26780;SDS011;14366;49.184;8.054;2023-04-16T21:56:29;22.05;;;18.50;;
26780;SDS011;14366;49.184;8.054;2023-04-16T22:07:05;23.77;;;19.37;;
26780;SDS011;14366;49.184;8.054;2023-04-16T22:17:43;27.52;;;19.77;;
26780;SDS011;14366;49.184;8.054;2023-04-16T22:23:15;27.40;;;19.80;;
26780;SDS011;14366;49.184;8.054;2023-04-16T22:28:35;24.00;;;19.25;;
26780;SDS011;14366;49.184;8.054;2023-04-16T22:33:57;24.63;;;18.90;;
26780;SDS011;14366;49.184;8.054;2023-04-16T22:39:31;24.30;;;18.90;;
26780;SDS011;14366;49.184;8.054;2023-04-16T22:45:05;22.25;;;17.95;;
26780;SDS011;14366;49.184;8.054;2023-04-16T22:50:40;23.13;;;17.50;;
26780;SDS011;14366;49.184;8.054;2023-04-16T22:56:14;24.00;;;18.37;;
26780;SDS011;14366;49.184;8.054;2023-04-16T23:01:49;21.10;;;16.80;;
26780;SDS011;14366;49.184;8.054;2023-04-16T23:07:23;23.15;;;17.40;;
26780;SDS011;14366;49.184;8.054;2023-04-16T23:17:57;21.15;;;16.85;;
26780;SDS011;14366;49.184;8.054;2023-04-16T23:23:31;20.40;;;16.45;;
26780;SDS011;14366;49.184;8.054;2023-04-16T23:34:06;20.57;;;15.43;;
26780;SDS011;14366;49.184;8.054;2023-04-16T23:44:30;20.53;;;16.97;;
26780;SDS011;14366;49.184;8.054;2023-04-16T23:55:06;21.00;;;16.15;;
